createdAt,value
2023-01-05T00:00:26.811Z,98390.06
2023-01-05T00:02:56.349Z,98397.13
2023-01-05T00:05:26.779Z,98391.72
2023-01-05T00:07:57.329Z,98395.31
2023-01-05T00:10:44.578Z,98386.84
2023-01-05T00:13:31.803Z,98378.78
2023-01-05T00:16:18.992Z,98367.16
2023-01-05T00:19:06.682Z,98360.75
2023-01-05T00:21:55.129Z,98365.81
2023-01-05T00:24:25.222Z,98370.03
2023-01-05T00:26:54.380Z,98376.91
2023-01-05T00:29:24.600Z,98377.16
2023-01-05T00:31:53.825Z,98367.31
2023-01-05T00:34:23.944Z,98365.31
2023-01-05T00:36:52.400Z,98358.13
2023-01-05T00:39:22.684Z,98353.50
2023-01-05T00:41:51.647Z,98360.38
2023-01-05T00:44:20.577Z,98354.16
2023-01-05T00:46:52.148Z,98351.53
2023-01-05T00:49:21.697Z,98356.75
2023-01-05T00:51:51.121Z,98359.56
2023-01-05T00:54:21.311Z,98352.50
2023-01-05T00:56:51.427Z,98355.13
2023-01-05T00:59:20.891Z,98363.81
2023-01-05T01:01:53.548Z,98364.78
2023-01-05T01:04:24.100Z,98365.41
2023-01-05T01:06:55.237Z,98368.03
2023-01-05T01:09:24.305Z,98382.75
2023-01-05T01:11:54.806Z,98377.88
2023-01-05T01:14:25.484Z,98377.88
2023-01-05T01:16:57.125Z,98379.69
2023-01-05T01:19:27.913Z,98387.16
2023-01-05T01:21:57.640Z,98396.81
2023-01-05T01:24:29.498Z,98406.13
2023-01-05T01:27:00.285Z,98406.94
2023-01-05T01:29:30.280Z,98408.91
2023-01-05T01:32:01.393Z,98417.59
2023-01-05T01:34:32.109Z,98419.41
2023-01-05T01:39:29.831Z,98434.66
2023-01-05T01:41:59.481Z,98431.88
2023-01-05T01:44:51.354Z,98432.22
2023-01-05T01:47:33.925Z,98429.41
2023-01-05T01:50:13.011Z,98440.88
2023-01-05T01:52:45.533Z,98439.81
2023-01-05T01:55:16.783Z,98446.84
2023-01-05T01:57:47.999Z,98452.06
2023-01-05T02:00:18.973Z,98455.88
2023-01-05T02:02:54.354Z,98455.06
2023-01-05T02:05:30.940Z,98454.91
2023-01-05T02:08:01.789Z,98450.28
2023-01-05T02:11:13.852Z,98448.03
2023-01-05T02:14:00.017Z,98449.22
2023-01-05T02:16:44.293Z,98455.44
2023-01-05T02:20:15.035Z,98452.97
2023-01-05T02:23:22.485Z,98455.78
2023-01-05T02:26:48.966Z,98459.22
2023-01-05T02:29:58.665Z,98452.53
2023-01-05T02:32:41.221Z,98449.28
2023-01-05T02:35:24.763Z,98451.28
2023-01-05T02:38:07.065Z,98440.97
2023-01-05T02:40:43.930Z,98437.09
2023-01-05T02:43:15.803Z,98450.38
2023-01-05T02:45:45.938Z,98462.56
2023-01-05T02:48:16.784Z,98447.63
2023-01-05T02:50:53.787Z,98453.44
2023-01-05T02:53:30.768Z,98458.38
2023-01-05T02:56:08.455Z,98467.03
2023-01-05T02:58:45.789Z,98468.84
2023-01-05T03:01:21.872Z,98464.69
2023-01-05T03:03:59.481Z,98453.91
2023-01-05T03:06:34.518Z,98455.56
2023-01-05T03:09:07.372Z,98461.66
2023-01-05T03:12:04.625Z,98461.28
2023-01-05T03:14:39.084Z,98473.25
2023-01-05T03:17:16.968Z,98478.59
2023-01-05T03:19:52.631Z,98484.16
2023-01-05T03:22:44.753Z,98493.28
2023-01-05T03:25:37.459Z,98501.16
2023-01-05T03:28:32.401Z,98487.91
2023-01-05T03:31:28.898Z,98505.41
2023-01-05T03:34:26.063Z,98496.25
2023-01-05T03:37:05.343Z,98500.53
2023-01-05T03:39:39.948Z,98513.59
2023-01-05T03:42:11.791Z,98506.88
2023-01-05T03:44:45.747Z,98514.94
2023-01-05T03:47:15.484Z,98509.59
2023-01-05T03:49:45.119Z,98515.94
2023-01-05T03:52:16.486Z,98522.19
2023-01-05T03:54:45.490Z,98518.09
2023-01-05T03:57:14.443Z,98517.63
2023-01-05T03:59:44.314Z,98516.66
2023-01-05T04:02:14.616Z,98514.03
2023-01-05T04:04:44.723Z,98507.00
2023-01-05T04:07:15.004Z,98519.78
2023-01-05T04:09:44.900Z,98515.22
2023-01-05T04:12:14.492Z,98526.47
2023-01-05T04:14:44.814Z,98517.81
2023-01-05T04:17:14.304Z,98523.56
2023-01-05T04:19:45.342Z,98537.44
2023-01-05T04:22:15.799Z,98528.16
2023-01-05T04:24:46.299Z,98536.34
2023-01-05T04:27:15.307Z,98539.94
2023-01-05T04:29:44.936Z,98514.16
2023-01-05T04:32:14.008Z,98526.56
2023-01-05T04:34:44.548Z,98517.88
2023-01-05T04:37:15.466Z,98528.50
2023-01-05T04:39:44.900Z,98510.88
2023-01-05T04:42:13.421Z,98509.91
2023-01-05T04:44:43.439Z,98515.75
2023-01-05T04:47:13.149Z,98525.22
2023-01-05T04:49:42.003Z,98541.38
2023-01-05T04:52:11.663Z,98540.28
2023-01-05T04:54:42.814Z,98539.47
2023-01-05T04:57:12.762Z,98537.81
2023-01-05T04:59:42.287Z,98547.63
2023-01-05T05:02:13.840Z,98549.41
2023-01-05T05:04:44.096Z,98545.00
2023-01-05T05:07:14.618Z,98559.88
2023-01-05T05:09:46.844Z,98564.16
2023-01-05T05:12:20.485Z,98564.78
2023-01-05T05:14:49.407Z,98571.00
2023-01-05T05:17:20.746Z,98557.75
2023-01-05T05:19:49.769Z,98566.41
2023-01-05T05:22:19.086Z,98565.44
2023-01-05T05:24:49.839Z,98569.22
2023-01-05T05:27:20.510Z,98575.91
2023-01-05T05:29:50.496Z,98569.84
2023-01-05T05:32:20.095Z,98577.84
2023-01-05T05:34:48.901Z,98571.47
2023-01-05T05:37:18.414Z,98570.66
2023-01-05T05:39:49.880Z,98577.84
2023-01-05T05:42:19.277Z,98571.47
2023-01-05T05:44:48.781Z,98570.66
2023-01-05T05:47:18.955Z,98576.03
2023-01-05T05:49:49.142Z,98576.41
2023-01-05T05:52:18.126Z,98573.63
2023-01-05T05:54:49.485Z,98564.66
2023-01-05T05:57:18.968Z,98571.34
2023-01-05T05:59:49.521Z,98580.66
2023-01-05T06:02:20.992Z,98581.97
2023-01-05T06:04:53.699Z,98576.59
2023-01-05T06:07:23.213Z,98582.59
2023-01-05T06:09:54.560Z,98589.31
2023-01-05T06:12:25.065Z,98599.09
2023-01-05T06:14:54.152Z,98603.19
2023-01-05T06:17:24.223Z,98596.13
2023-01-05T06:19:53.562Z,98593.88
2023-01-05T06:22:23.224Z,98598.75
2023-01-05T06:24:53.498Z,98601.06
2023-01-05T06:27:23.891Z,98610.34
2023-01-05T06:29:52.794Z,98599.75
2023-01-05T06:32:21.762Z,98610.00
2023-01-05T06:34:51.538Z,98615.25
2023-01-05T06:37:20.967Z,98618.03
2023-01-05T06:39:51.131Z,98621.28
2023-01-05T06:42:23.555Z,98619.31
2023-01-05T06:44:53.163Z,98621.28
2023-01-05T06:47:23.589Z,98623.63
2023-01-05T06:49:54.286Z,98630.63
2023-01-05T06:52:24.319Z,98638.63
2023-01-05T06:54:55.176Z,98641.91
2023-01-05T06:57:26.011Z,98648.78
2023-01-05T06:59:56.705Z,98649.56
2023-01-05T07:02:26.341Z,98658.88
2023-01-05T07:04:56.342Z,98654.31
2023-01-05T07:07:25.885Z,98651.53
2023-01-05T07:09:54.853Z,98647.13
2023-01-05T07:12:26.715Z,98642.53
2023-01-05T07:14:57.885Z,98635.66
2023-01-05T07:17:26.993Z,98651.19
2023-01-05T07:19:55.946Z,98651.66
2023-01-05T07:22:25.533Z,98643.84
2023-01-05T07:24:55.604Z,98659.50
2023-01-05T07:27:27.173Z,98664.53
2023-01-05T07:29:56.626Z,98656.91
2023-01-05T07:32:26.664Z,98659.50
2023-01-05T07:34:56.280Z,98664.72
2023-01-05T07:37:27.099Z,98675.69
2023-01-05T07:39:57.104Z,98667.53
2023-01-05T07:42:28.984Z,98667.38
2023-01-05T07:44:58.706Z,98675.03
2023-01-05T07:47:29.127Z,98666.88
2023-01-05T07:49:58.184Z,98673.06
2023-01-05T07:52:30.447Z,98675.69
2023-01-05T07:55:00.359Z,98679.13
2023-01-05T07:57:31.627Z,98677.81
2023-01-05T08:00:02.099Z,98687.28
2023-01-05T08:02:35.886Z,98686.94
2023-01-05T08:05:05.666Z,98694.31
2023-01-05T08:07:36.828Z,98696.78
2023-01-05T08:10:26.775Z,98700.03
2023-01-05T08:13:20.052Z,98705.56
2023-01-05T08:15:51.485Z,98712.44
2023-01-05T08:18:21.190Z,98700.00
2023-01-05T08:20:55.217Z,98715.69
2023-01-05T08:23:26.815Z,98717.34
2023-01-05T08:25:56.751Z,98717.50
2023-01-05T08:28:35.232Z,98725.00
2023-01-05T08:31:07.775Z,98723.69
2023-01-05T08:33:37.837Z,98726.47
2023-01-05T08:36:11.245Z,98733.84
2023-01-05T08:38:49.011Z,98731.84
2023-01-05T08:41:20.012Z,98728.09
2023-01-05T08:43:54.288Z,98725.16
2023-01-05T08:46:25.323Z,98730.41
2023-01-05T08:48:59.150Z,98730.06
2023-01-05T08:51:29.967Z,98726.47
2023-01-05T08:54:00.512Z,98723.53
2023-01-05T08:56:38.056Z,98736.09
2023-01-05T08:59:12.780Z,98724.50
2023-01-05T09:01:41.368Z,98729.06
2023-01-05T09:04:10.954Z,98725.16
2023-01-05T09:06:41.366Z,98727.44
2023-01-05T09:09:12.118Z,98738.56
2023-01-05T09:11:42.808Z,98731.69
2023-01-05T09:14:16.396Z,98736.59
2023-01-05T09:17:06.298Z,98741.81
2023-01-05T09:19:36.100Z,98742.28
2023-01-05T09:22:06.034Z,98738.69
2023-01-05T09:24:36.523Z,98725.47
2023-01-05T09:27:08.345Z,98737.88
2023-01-05T09:29:38.729Z,98743.78
2023-01-05T09:32:08.437Z,98744.75
2023-01-05T09:34:39.218Z,98745.22
2023-01-05T09:37:09.114Z,98746.06
2023-01-05T09:39:38.095Z,98750.94
2023-01-05T09:42:17.361Z,98745.03
2023-01-05T09:44:57.073Z,98751.28
2023-01-05T09:47:38.518Z,98755.00
2023-01-05T09:50:18.081Z,98757.28
2023-01-05T09:52:47.771Z,98750.91
2023-01-05T09:55:20.332Z,98755.47
2023-01-05T09:57:58.748Z,98759.41
2023-01-05T10:00:30.622Z,98754.81
2023-01-05T10:03:04.697Z,98759.69
2023-01-05T10:05:39.433Z,98765.59
2023-01-05T10:08:18.689Z,98762.78
2023-01-05T10:11:06.367Z,98762.78
2023-01-05T10:13:40.851Z,98771.13
2023-01-05T10:16:19.362Z,98768.69
2023-01-05T10:18:49.385Z,98767.72
2023-01-05T10:21:36.414Z,98770.13
2023-01-05T10:24:47.017Z,98773.56
2023-01-05T10:27:27.595Z,98770.63
2023-01-05T10:30:11.839Z,98772.06
2023-01-05T10:33:25.277Z,98770.94
2023-01-05T10:36:07.480Z,98778.94
2023-01-05T10:38:56.804Z,98766.50
2023-01-05T10:41:39.942Z,98775.03
2023-01-05T10:44:57.388Z,98775.38
2023-01-05T10:47:31.755Z,98778.66
2023-01-05T10:50:03.784Z,98768.34
2023-01-05T10:52:33.601Z,98774.41
2023-01-05T10:55:04.268Z,98774.53
2023-01-05T10:57:41.986Z,98767.72
2023-01-05T11:00:20.018Z,98763.25
2023-01-05T11:02:55.278Z,98766.34
2023-01-05T11:05:36.655Z,98757.72
2023-01-05T11:08:08.816Z,98759.00
2023-01-05T11:10:43.747Z,98760.78
2023-01-05T11:13:29.144Z,98764.88
2023-01-05T11:16:04.773Z,98746.72
2023-01-05T11:18:42.311Z,98750.81
2023-01-05T11:21:44.836Z,98750.81
2023-01-05T11:24:31.992Z,98741.63
2023-01-05T11:27:03.298Z,98756.50
2023-01-05T11:29:33.113Z,98766.97
2023-01-05T11:32:05.189Z,98760.59
2023-01-05T11:34:43.679Z,98768.44
2023-01-05T11:37:28.725Z,98763.03
2023-01-05T11:40:01.744Z,98768.13
2023-01-05T11:42:35.852Z,98771.00
2023-01-05T11:45:09.494Z,98777.25
2023-01-05T11:47:45.143Z,98774.31
2023-01-05T11:50:25.475Z,98779.69
2023-01-05T11:52:58.401Z,98787.03
2023-01-05T11:55:38.522Z,98790.34
2023-01-05T11:58:34.506Z,98787.38
2023-01-05T12:01:40.696Z,98784.56
2023-01-05T12:04:55.787Z,98789.31
2023-01-05T12:07:50.703Z,98792.25
2023-01-05T12:10:51.008Z,98792.91
2023-01-05T12:14:00.006Z,98785.72
2023-01-05T12:16:51.412Z,98791.91
2023-01-05T12:19:57.505Z,98787.97
2023-01-05T12:23:22.766Z,98792.56
2023-01-05T12:26:05.977Z,98794.84
2023-01-05T12:35:48.684Z,98800.22
2023-01-05T12:38:37.362Z,98809.88
2023-01-05T12:41:50.603Z,98796.59
2023-01-05T12:45:10.621Z,98801.66
2023-01-05T12:48:01.056Z,98806.41
2023-01-05T12:50:40.010Z,98798.56
2023-01-05T12:53:22.770Z,98802.97
2023-01-05T12:55:58.008Z,98804.16
2023-01-05T12:58:38.328Z,98798.94
2023-01-05T13:01:19.498Z,98797.75
2023-01-05T13:03:56.570Z,98799.88
2023-01-05T13:06:31.222Z,98792.84
2023-01-05T13:09:08.613Z,98791.53
2023-01-05T13:11:46.887Z,98787.72
2023-01-05T13:14:23.219Z,98787.41
2023-01-05T13:16:58.804Z,98787.72
2023-01-05T13:19:35.074Z,98797.69
2023-01-05T13:22:11.903Z,98784.59
2023-01-05T13:24:52.241Z,98794.72
2023-01-05T13:27:22.409Z,98790.81
2023-01-05T13:29:59.482Z,98795.72
2023-01-05T13:32:50.868Z,98791.28
2023-01-05T13:35:44.725Z,98798.31
2023-01-05T13:39:02.015Z,98794.53
2023-01-05T13:42:27.156Z,98796.47
2023-01-05T13:45:39.678Z,98807.25
2023-01-05T13:51:46.872Z,98810.22
2023-01-05T13:54:24.785Z,98811.03
2023-01-05T13:56:53.871Z,98812.72
2023-01-05T13:59:35.048Z,98810.72
2023-01-05T14:02:32.456Z,98812.00
2023-01-05T14:05:01.938Z,98807.13
2023-01-05T14:07:32.130Z,98804.31
2023-01-05T14:10:03.228Z,98799.91
2023-01-05T14:12:50.530Z,98810.03
2023-01-05T14:15:42.157Z,98807.41
2023-01-05T14:18:13.990Z,98809.50
2023-01-05T14:20:49.586Z,98804.28
2023-01-05T14:23:59.385Z,98805.91
2023-01-05T14:27:05.935Z,98801.84
2023-01-05T14:30:22.395Z,98801.84
2023-01-05T14:32:56.947Z,98801.84
2023-01-05T14:35:37.187Z,98800.84
2023-01-05T14:38:17.489Z,98807.72
2023-01-05T14:40:53.411Z,98816.19
2023-01-05T14:43:36.785Z,98808.34
2023-01-05T14:46:10.921Z,98811.19
2023-01-05T14:48:51.606Z,98816.91
2023-01-05T14:51:26.869Z,98815.91
2023-01-05T14:53:58.900Z,98827.03
2023-01-05T14:56:31.472Z,98817.88
2023-01-05T14:59:23.546Z,98823.59
2023-01-05T15:01:58.356Z,98820.19
2023-01-05T15:04:33.160Z,98824.75
2023-01-05T15:07:32.606Z,98817.88
2023-01-05T15:10:39.823Z,98824.47
2023-01-05T15:14:11.394Z,98826.28
2023-01-05T15:17:32.818Z,98826.44
2023-01-05T15:20:46.966Z,98822.72
2023-01-05T15:23:50.045Z,98825.81
2023-01-05T15:26:42.894Z,98822.56
2023-01-05T15:29:46.604Z,98840.25
2023-01-05T15:32:22.424Z,98831.75
2023-01-05T15:34:57.978Z,98838.94
2023-01-05T15:37:34.978Z,98835.84
2023-01-05T15:40:09.243Z,98844.03
2023-01-05T15:42:43.785Z,98838.66
2023-01-05T15:45:24.338Z,98844.03
2023-01-05T15:47:54.632Z,98843.41
2023-01-05T15:50:31.527Z,98842.94
2023-01-05T15:53:03.053Z,98841.13
2023-01-05T15:55:33.365Z,98843.75
2023-01-05T15:58:08.290Z,98840.31
2023-01-05T16:00:38.752Z,98840.47
2023-01-05T16:03:23.965Z,98847.50
2023-01-05T16:05:59.756Z,98844.59
2023-01-05T16:08:29.588Z,98847.84
2023-01-05T16:11:06.138Z,98851.47
2023-01-05T16:13:42.877Z,98843.78
2023-01-05T16:16:49.740Z,98843.28
2023-01-05T16:19:17.474Z,98836.41
2023-01-05T16:21:54.720Z,98843.28
2023-01-05T16:24:29.845Z,98841.84
2023-01-05T16:27:01.045Z,98836.75
2023-01-05T16:29:38.045Z,98843.63
2023-01-05T16:32:28.550Z,98840.69
2023-01-05T16:35:24.421Z,98847.56
2023-01-05T16:38:14.641Z,98838.06
2023-01-05T16:41:09.674Z,98831.88
2023-01-05T16:43:53.171Z,98831.88
2023-01-05T16:46:43.903Z,98833.19
2023-01-05T16:49:41.231Z,98828.97
2023-01-05T16:52:24.460Z,98829.75
2023-01-05T16:55:27.515Z,98826.00
2023-01-05T16:57:58.116Z,98823.53
2023-01-05T17:00:40.828Z,98830.56
2023-01-05T17:03:31.880Z,98828.97
2023-01-05T17:06:03.183Z,98826.50
2023-01-05T17:08:36.974Z,98825.34
2023-01-05T17:11:12.381Z,98823.88
2023-01-05T17:13:44.885Z,98823.25
2023-01-05T17:16:16.389Z,98817.19
2023-01-05T17:18:45.489Z,98823.25
2023-01-05T17:21:21.896Z,98825.03
2023-01-05T17:23:54.827Z,98825.69
2023-01-05T17:26:28.643Z,98824.03
2023-01-05T17:31:32.066Z,98822.25
2023-01-05T17:34:00.546Z,98828.28
2023-01-05T17:36:33.274Z,98822.09
2023-01-05T17:39:03.657Z,98821.25
2023-01-05T17:41:33.209Z,98823.88
2023-01-05T17:44:02.763Z,98815.41
2023-01-05T17:46:35.912Z,98811.78
2023-01-05T17:49:06.432Z,98818.81
2023-01-05T17:51:35.529Z,98824.22
2023-01-05T17:54:05.082Z,98816.53
2023-01-05T17:56:34.559Z,98823.56
2023-01-05T17:59:04.965Z,98814.09
2023-01-05T18:01:36.073Z,98819.50
2023-01-05T18:04:04.817Z,98830.63
2023-01-05T18:06:33.766Z,98827.19
2023-01-05T18:09:03.906Z,98821.13
2023-01-05T18:14:01.757Z,98820.94
2023-01-05T18:16:31.337Z,98825.38
2023-01-05T18:19:02.065Z,98817.88
2023-01-05T18:21:31.031Z,98821.94
2023-01-05T18:24:00.971Z,98819.50
2023-01-05T18:26:29.997Z,98820.31
2023-01-05T18:28:59.990Z,98821.13
2023-01-05T18:31:29.172Z,98813.44
2023-01-05T18:33:58.094Z,98816.88
2023-01-05T18:36:29.545Z,98814.25
2023-01-05T18:38:58.619Z,98812.31
2023-01-05T18:41:28.850Z,98813.28
2023-01-05T18:43:58.832Z,98813.09
2023-01-05T18:46:29.035Z,98806.25
2023-01-05T18:48:58.493Z,98809.03
2023-01-05T18:51:29.503Z,98812.47
2023-01-05T18:53:58.180Z,98815.91
2023-01-05T18:56:27.678Z,98802.19
2023-01-05T18:58:57.547Z,98811.63
2023-01-05T19:01:27.499Z,98802.19
2023-01-05T19:03:56.568Z,98815.25
2023-01-05T19:06:27.597Z,98814.09
2023-01-05T19:08:57.771Z,98805.44
2023-01-05T19:11:29.453Z,98801.84
2023-01-05T19:14:00.924Z,98802.00
2023-01-05T19:16:33.303Z,98801.19
2023-01-05T19:19:08.465Z,98801.84
2023-01-05T19:21:45.665Z,98795.94
2023-01-05T19:24:17.011Z,98803.16
2023-01-05T19:26:48.468Z,98799.56
2023-01-05T19:29:20.151Z,98797.75
2023-01-05T19:31:49.281Z,98794.34
2023-01-05T19:34:20.250Z,98803.78
2023-01-05T19:36:50.807Z,98802.00
2023-01-05T19:39:22.482Z,98794.16
2023-01-05T19:41:53.638Z,98796.94
2023-01-05T19:44:24.718Z,98793.53
2023-01-05T19:46:54.253Z,98799.56
2023-01-05T19:49:25.406Z,98792.34
2023-01-05T19:51:57.237Z,98796.63
2023-01-05T19:54:28.237Z,98788.91
2023-01-05T19:56:58.537Z,98795.94
2023-01-05T19:59:33.333Z,98783.69
2023-01-05T20:02:03.131Z,98784.50
2023-01-05T20:04:33.098Z,98785.50
2023-01-05T20:07:04.526Z,98774.41
2023-01-05T20:09:34.385Z,98774.41
2023-01-05T20:12:13.944Z,98766.53
2023-01-05T20:14:44.938Z,98768.34
2023-01-05T20:17:15.345Z,98764.75
2023-01-05T20:19:44.769Z,98756.09
2023-01-05T20:22:15.387Z,98749.06
2023-01-05T20:24:45.439Z,98756.09
2023-01-05T20:27:19.216Z,98757.72
2023-01-05T20:29:49.323Z,98753.28
2023-01-05T20:32:25.453Z,98755.75
2023-01-05T20:34:59.727Z,98763.59
2023-01-05T20:37:33.373Z,98761.94
2023-01-05T20:40:05.089Z,98758.69
2023-01-05T20:42:33.573Z,98757.72
2023-01-05T20:45:04.391Z,98761.94
2023-01-05T20:47:46.440Z,98756.72
2023-01-05T20:50:15.682Z,98755.09
2023-01-05T20:52:47.103Z,98755.25
2023-01-05T20:55:17.967Z,98752.50
2023-01-05T20:57:49.422Z,98751.84
2023-01-05T21:00:19.946Z,98753.47
2023-01-05T21:02:50.095Z,98749.06
2023-01-05T21:05:19.694Z,98753.28
2023-01-05T21:07:51.316Z,98751.50
2023-01-05T21:10:20.451Z,98751.50
2023-01-05T21:12:49.489Z,98751.50
2023-01-05T21:15:19.799Z,98750.50
2023-01-05T21:17:49.520Z,98749.53
2023-01-05T21:20:18.775Z,98751.34
2023-01-05T21:22:50.579Z,98749.53
2023-01-05T21:25:20.102Z,98745.91
2023-01-05T21:27:50.138Z,98745.09
2023-01-05T21:30:22.381Z,98740.69
2023-01-05T21:32:53.092Z,98741.50
2023-01-05T21:35:23.127Z,98740.69
2023-01-05T21:37:53.373Z,98744.13
2023-01-05T21:40:27.306Z,98742.31
2023-01-05T21:42:57.935Z,98744.94
2023-01-05T21:45:28.401Z,98744.13
2023-01-05T21:47:59.173Z,98743.66
2023-01-05T21:50:45.669Z,98734.19
2023-01-05T21:53:35.469Z,98735.78
2023-01-05T21:56:30.007Z,98732.34
2023-01-05T21:59:01.167Z,98732.56
2023-01-05T22:01:30.556Z,98722.91
2023-01-05T22:03:59.471Z,98718.50
2023-01-05T22:06:28.094Z,98719.28
2023-01-05T22:08:59.035Z,98720.94
2023-01-05T22:11:29.342Z,98714.88
2023-01-05T22:13:59.289Z,98712.09
2023-01-05T22:16:28.347Z,98706.88
2023-01-05T22:18:58.465Z,98700.81
2023-01-05T22:21:28.154Z,98709.31
2023-01-05T22:23:59.126Z,98705.88
2023-01-05T22:26:28.677Z,98698.84
2023-01-05T22:28:58.895Z,98706.06
2023-01-05T22:31:30.843Z,98696.22
2023-01-05T22:34:02.289Z,98698.84
2023-01-05T22:36:32.766Z,98701.28
2023-01-05T22:39:04.154Z,98698.50
2023-01-05T22:41:34.817Z,98701.09
2023-01-05T22:44:05.040Z,98700.31
2023-01-05T22:46:35.889Z,98704.53
2023-01-05T22:49:05.354Z,98698.50
2023-01-05T22:51:38.032Z,98700.13
2023-01-05T22:54:09.806Z,98694.91
2023-01-05T22:56:40.537Z,98692.47
2023-01-05T22:59:10.948Z,98691.66
2023-01-05T23:01:45.458Z,98692.63
2023-01-05T23:04:17.185Z,98693.09
2023-01-05T23:06:47.127Z,98686.06
2023-01-05T23:09:20.240Z,98691.94
2023-01-05T23:11:50.638Z,98685.25
2023-01-05T23:14:20.137Z,98691.94
2023-01-05T23:16:49.490Z,98686.56
2023-01-05T23:19:19.275Z,98680.50
2023-01-05T23:21:48.772Z,98683.13
2023-01-05T23:24:19.195Z,98682.97
2023-01-05T23:26:48.624Z,98674.91
2023-01-05T23:29:18.057Z,98675.72
2023-01-05T23:31:47.620Z,98679.16
2023-01-05T23:34:17.499Z,98664.09
2023-01-05T23:36:47.342Z,98660.50
2023-01-05T23:39:18.326Z,98653.66
2023-01-05T23:41:47.802Z,98657.06
2023-01-05T23:44:18.455Z,98655.28
2023-01-05T23:46:49.030Z,98649.06
2023-01-05T23:49:18.456Z,98643.84
2023-01-05T23:51:48.465Z,98637.59
2023-01-05T23:54:20.265Z,98642.81
2023-01-05T23:56:50.639Z,98634.00
2023-01-05T23:59:21.175Z,98634.00
